GAA weather

Guamal Airport
Guamal, Magdalena Department, Colombia

Public forecast

Using degrees Celsius for public forecast. Weather courtesy of forecast.io.

Closest aviation weather report (METAR) to Guamal Airport

Report is more than 6 hours old.

Closest report is Las Brujas Airport, 63.3 nm (117.3 km) W. Retrieved 2019/09/14 18:00 UTC (1 month ago):

SKCZ 141800Z 27007KT 240V310 9999 SCT020 SCT200 34/25 A2980

Closest aviation forecast (TAF) to Guamal Airport

Closest forecast is Rafael Nuñez International Airport, 108.4 nm (200.8 km) NW. Retrieved 2019/10/22 06:46 UTC (3 hours ago):

TAF SKCG 220430Z 2206/2306 VRB02KT 9999 SCT017 BKN090 PROB40 TEMPO 2208/2212 5000 TSRA SCT012CB BKN070 BECMG 2214/2216 24009KT TEMPO 2217/2222 5000 TSRA SCT015CB SCT018 TX33/2219Z TN25/2211Z